METAR Data
IDs: Format: Raw Decoded Include TAF

Data at: 0353 UTC 24 Jun 2021

KCYS 240253Z 30009KT 10SM CLR 25/M01 A3006 RMK AO2 SLP072 T02501006 53011